sensor_id;sensor_type;location;lat;lon;timestamp;P1;durP1;ratioP1;P2;durP2;ratioP2
80159;SDS011;69486;59.082;37.928;2024-01-10T00:02:00;3.35;;;3.10;;
80159;SDS011;69486;59.082;37.928;2024-01-10T00:04:26;3.20;;;3.00;;
80159;SDS011;69486;59.082;37.928;2024-01-10T00:06:52;2.78;;;2.58;;
80159;SDS011;69486;59.082;37.928;2024-01-10T00:09:18;3.00;;;2.80;;
80159;SDS011;69486;59.082;37.928;2024-01-10T00:11:43;2.83;;;2.70;;
80159;SDS011;69486;59.082;37.928;2024-01-10T00:14:09;3.38;;;3.17;;
80159;SDS011;69486;59.082;37.928;2024-01-10T00:16:36;3.20;;;3.00;;
80159;SDS011;69486;59.082;37.928;2024-01-10T00:19:02;2.70;;;2.50;;
80159;SDS011;69486;59.082;37.928;2024-01-10T00:21:28;3.00;;;2.80;;
80159;SDS011;69486;59.082;37.928;2024-01-10T00:23:54;2.67;;;2.58;;
80159;SDS011;69486;59.082;37.928;2024-01-10T00:26:20;3.45;;;2.80;;
80159;SDS011;69486;59.082;37.928;2024-01-10T00:28:45;3.47;;;3.17;;
80159;SDS011;69486;59.082;37.928;2024-01-10T00:31:15;3.10;;;2.90;;
80159;SDS011;69486;59.082;37.928;2024-01-10T00:33:40;3.72;;;2.80;;
80159;SDS011;69486;59.082;37.928;2024-01-10T00:36:06;2.97;;;2.78;;
80159;SDS011;69486;59.082;37.928;2024-01-10T00:38:32;3.33;;;3.00;;
80159;SDS011;69486;59.082;37.928;2024-01-10T00:40:58;3.25;;;3.05;;
80159;SDS011;69486;59.082;37.928;2024-01-10T00:43:24;3.15;;;2.95;;
80159;SDS011;69486;59.082;37.928;2024-01-10T00:45:49;3.00;;;2.80;;
80159;SDS011;69486;59.082;37.928;2024-01-10T00:48:15;3.13;;;2.92;;
80159;SDS011;69486;59.082;37.928;2024-01-10T00:50:42;2.88;;;2.78;;
80159;SDS011;69486;59.082;37.928;2024-01-10T00:53:09;3.38;;;3.08;;
80159;SDS011;69486;59.082;37.928;2024-01-10T00:55:35;3.15;;;2.90;;
80159;SDS011;69486;59.082;37.928;2024-01-10T00:58:01;3.50;;;3.20;;
80159;SDS011;69486;59.082;37.928;2024-01-10T01:00:26;3.30;;;3.08;;
80159;SDS011;69486;59.082;37.928;2024-01-10T01:02:52;3.10;;;2.90;;
80159;SDS011;69486;59.082;37.928;2024-01-10T01:05:18;3.42;;;3.22;;
80159;SDS011;69486;59.082;37.928;2024-01-10T01:07:43;3.50;;;3.28;;
80159;SDS011;69486;59.082;37.928;2024-01-10T01:10:09;3.10;;;2.90;;
80159;SDS011;69486;59.082;37.928;2024-01-10T01:12:35;3.17;;;2.97;;
80159;SDS011;69486;59.082;37.928;2024-01-10T01:15:00;7.35;;;3.38;;
80159;SDS011;69486;59.082;37.928;2024-01-10T01:17:26;3.20;;;2.95;;
80159;SDS011;69486;59.082;37.928;2024-01-10T01:19:52;3.28;;;3.08;;
80159;SDS011;69486;59.082;37.928;2024-01-10T01:22:17;3.17;;;2.97;;
80159;SDS011;69486;59.082;37.928;2024-01-10T01:24:43;3.28;;;3.00;;
80159;SDS011;69486;59.082;37.928;2024-01-10T01:27:13;3.83;;;3.45;;
80159;SDS011;69486;59.082;37.928;2024-01-10T01:29:39;3.05;;;2.85;;
80159;SDS011;69486;59.082;37.928;2024-01-10T01:32:05;3.00;;;2.80;;
80159;SDS011;69486;59.082;37.928;2024-01-10T01:34:31;3.05;;;2.85;;
80159;SDS011;69486;59.082;37.928;2024-01-10T01:36:57;3.22;;;3.05;;
80159;SDS011;69486;59.082;37.928;2024-01-10T01:39:23;3.15;;;2.95;;
80159;SDS011;69486;59.082;37.928;2024-01-10T01:41:48;2.97;;;2.88;;
80159;SDS011;69486;59.082;37.928;2024-01-10T01:44:14;3.13;;;2.83;;
80159;SDS011;69486;59.082;37.928;2024-01-10T01:46:40;3.10;;;2.75;;
80159;SDS011;69486;59.082;37.928;2024-01-10T01:49:06;3.47;;;3.17;;
80159;SDS011;69486;59.082;37.928;2024-01-10T01:51:33;3.00;;;2.80;;
80159;SDS011;69486;59.082;37.928;2024-01-10T01:54:00;3.63;;;3.33;;
80159;SDS011;69486;59.082;37.928;2024-01-10T01:56:26;2.95;;;2.75;;
80159;SDS011;69486;59.082;37.928;2024-01-10T01:58:52;3.50;;;3.20;;
80159;SDS011;69486;59.082;37.928;2024-01-10T02:01:19;3.88;;;2.78;;
80159;SDS011;69486;59.082;37.928;2024-01-10T02:03:48;4.10;;;2.90;;
80159;SDS011;69486;59.082;37.928;2024-01-10T02:06:14;3.28;;;2.97;;
80159;SDS011;69486;59.082;37.928;2024-01-10T02:08:40;3.03;;;2.83;;
80159;SDS011;69486;59.082;37.928;2024-01-10T02:11:06;5.88;;;3.00;;
80159;SDS011;69486;59.082;37.928;2024-01-10T02:13:32;3.35;;;3.08;;
80159;SDS011;69486;59.082;37.928;2024-01-10T02:15:58;3.22;;;3.03;;
80159;SDS011;69486;59.082;37.928;2024-01-10T02:18:24;3.17;;;2.97;;
80159;SDS011;69486;59.082;37.928;2024-01-10T02:20:50;7.43;;;3.53;;
80159;SDS011;69486;59.082;37.928;2024-01-10T02:23:17;3.22;;;3.00;;
80159;SDS011;69486;59.082;37.928;2024-01-10T02:25:43;5.78;;;3.15;;
80159;SDS011;69486;59.082;37.928;2024-01-10T02:28:09;3.17;;;2.92;;
80159;SDS011;69486;59.082;37.928;2024-01-10T02:30:35;3.50;;;3.20;;
80159;SDS011;69486;59.082;37.928;2024-01-10T02:33:01;3.25;;;3.05;;
80159;SDS011;69486;59.082;37.928;2024-01-10T02:35:27;3.22;;;3.03;;
80159;SDS011;69486;59.082;37.928;2024-01-10T02:37:53;2.92;;;2.72;;
80159;SDS011;69486;59.082;37.928;2024-01-10T02:40:20;3.25;;;3.05;;
80159;SDS011;69486;59.082;37.928;2024-01-10T02:42:46;3.70;;;3.00;;
80159;SDS011;69486;59.082;37.928;2024-01-10T02:45:12;2.88;;;2.67;;
80159;SDS011;69486;59.082;37.928;2024-01-10T02:47:37;3.00;;;2.80;;
80159;SDS011;69486;59.082;37.928;2024-01-10T02:50:04;3.47;;;3.28;;
80159;SDS011;69486;59.082;37.928;2024-01-10T02:52:29;3.33;;;3.13;;
80159;SDS011;69486;59.082;37.928;2024-01-10T02:54:55;3.75;;;3.45;;
80159;SDS011;69486;59.082;37.928;2024-01-10T02:57:21;3.53;;;3.25;;
80159;SDS011;69486;59.082;37.928;2024-01-10T02:59:47;3.95;;;3.35;;
80159;SDS011;69486;59.082;37.928;2024-01-10T03:02:12;3.60;;;3.30;;
80159;SDS011;69486;59.082;37.928;2024-01-10T03:04:39;3.15;;;2.90;;
80159;SDS011;69486;59.082;37.928;2024-01-10T03:07:04;4.10;;;3.30;;
80159;SDS011;69486;59.082;37.928;2024-01-10T03:09:30;3.22;;;3.03;;
80159;SDS011;69486;59.082;37.928;2024-01-10T03:11:55;3.90;;;3.55;;
80159;SDS011;69486;59.082;37.928;2024-01-10T03:14:21;5.32;;;4.38;;
80159;SDS011;69486;59.082;37.928;2024-01-10T03:16:47;6.22;;;4.68;;
80159;SDS011;69486;59.082;37.928;2024-01-10T03:19:13;4.38;;;3.97;;
80159;SDS011;69486;59.082;37.928;2024-01-10T03:21:39;4.80;;;4.13;;
80159;SDS011;69486;59.082;37.928;2024-01-10T03:24:05;4.15;;;3.78;;
80159;SDS011;69486;59.082;37.928;2024-01-10T03:26:30;5.20;;;4.72;;
80159;SDS011;69486;59.082;37.928;2024-01-10T03:28:56;4.38;;;4.00;;
80159;SDS011;69486;59.082;37.928;2024-01-10T03:31:22;4.82;;;4.22;;
80159;SDS011;69486;59.082;37.928;2024-01-10T03:33:48;5.32;;;4.45;;
80159;SDS011;69486;59.082;37.928;2024-01-10T03:36:16;4.93;;;4.32;;
80159;SDS011;69486;59.082;37.928;2024-01-10T03:38:42;6.95;;;3.55;;
80159;SDS011;69486;59.082;37.928;2024-01-10T03:41:15;5.20;;;4.35;;
80159;SDS011;69486;59.082;37.928;2024-01-10T03:43:42;6.35;;;3.67;;
80159;SDS011;69486;59.082;37.928;2024-01-10T03:46:08;4.15;;;3.75;;
80159;SDS011;69486;59.082;37.928;2024-01-10T03:48:34;4.15;;;3.75;;
80159;SDS011;69486;59.082;37.928;2024-01-10T03:51:00;4.18;;;3.42;;
80159;SDS011;69486;59.082;37.928;2024-01-10T03:53:26;3.92;;;3.58;;
80159;SDS011;69486;59.082;37.928;2024-01-10T03:55:52;8.30;;;4.13;;
80159;SDS011;69486;59.082;37.928;2024-01-10T03:58:18;4.43;;;3.90;;
80159;SDS011;69486;59.082;37.928;2024-01-10T04:00:44;6.28;;;4.53;;
80159;SDS011;69486;59.082;37.928;2024-01-10T04:03:10;5.18;;;4.28;;
80159;SDS011;69486;59.082;37.928;2024-01-10T04:05:36;6.50;;;4.75;;
80159;SDS011;69486;59.082;37.928;2024-01-10T04:08:02;5.28;;;4.78;;
80159;SDS011;69486;59.082;37.928;2024-01-10T04:10:29;4.75;;;4.35;;
80159;SDS011;69486;59.082;37.928;2024-01-10T04:12:55;3.92;;;3.63;;
80159;SDS011;69486;59.082;37.928;2024-01-10T04:15:21;5.20;;;3.90;;
80159;SDS011;69486;59.082;37.928;2024-01-10T04:17:47;4.75;;;4.35;;
80159;SDS011;69486;59.082;37.928;2024-01-10T04:20:13;4.72;;;4.32;;
80159;SDS011;69486;59.082;37.928;2024-01-10T04:22:39;5.43;;;4.70;;
80159;SDS011;69486;59.082;37.928;2024-01-10T04:25:08;4.75;;;4.30;;
80159;SDS011;69486;59.082;37.928;2024-01-10T04:27:34;4.03;;;3.67;;
80159;SDS011;69486;59.082;37.928;2024-01-10T04:30:00;4.13;;;3.72;;
80159;SDS011;69486;59.082;37.928;2024-01-10T04:32:26;4.07;;;3.78;;
80159;SDS011;69486;59.082;37.928;2024-01-10T04:34:51;4.70;;;4.35;;
80159;SDS011;69486;59.082;37.928;2024-01-10T04:37:17;8.93;;;4.35;;
80159;SDS011;69486;59.082;37.928;2024-01-10T04:39:43;6.95;;;4.88;;
80159;SDS011;69486;59.082;37.928;2024-01-10T04:42:12;5.68;;;5.10;;
80159;SDS011;69486;59.082;37.928;2024-01-10T04:44:38;7.07;;;4.80;;
80159;SDS011;69486;59.082;37.928;2024-01-10T04:47:03;7.90;;;5.25;;
80159;SDS011;69486;59.082;37.928;2024-01-10T04:49:29;9.98;;;5.05;;
80159;SDS011;69486;59.082;37.928;2024-01-10T04:51:55;5.05;;;4.60;;
80159;SDS011;69486;59.082;37.928;2024-01-10T04:54:21;5.90;;;4.80;;
80159;SDS011;69486;59.082;37.928;2024-01-10T04:56:47;5.55;;;5.00;;
80159;SDS011;69486;59.082;37.928;2024-01-10T04:59:13;4.65;;;4.35;;
80159;SDS011;69486;59.082;37.928;2024-01-10T05:01:38;5.53;;;5.13;;
80159;SDS011;69486;59.082;37.928;2024-01-10T05:04:04;4.72;;;4.32;;
80159;SDS011;69486;59.082;37.928;2024-01-10T05:06:29;4.53;;;4.03;;
80159;SDS011;69486;59.082;37.928;2024-01-10T05:08:55;3.92;;;3.63;;
80159;SDS011;69486;59.082;37.928;2024-01-10T05:11:24;4.55;;;3.97;;
80159;SDS011;69486;59.082;37.928;2024-01-10T05:13:50;5.05;;;4.65;;
80159;SDS011;69486;59.082;37.928;2024-01-10T05:16:16;4.95;;;4.53;;
80159;SDS011;69486;59.082;37.928;2024-01-10T05:18:42;4.65;;;4.35;;
80159;SDS011;69486;59.082;37.928;2024-01-10T05:21:08;6.13;;;4.20;;
80159;SDS011;69486;59.082;37.928;2024-01-10T05:23:34;4.57;;;4.20;;
80159;SDS011;69486;59.082;37.928;2024-01-10T05:26:00;4.35;;;4.05;;
80159;SDS011;69486;59.082;37.928;2024-01-10T05:28:26;8.50;;;4.32;;
80159;SDS011;69486;59.082;37.928;2024-01-10T05:30:52;4.93;;;4.53;;
80159;SDS011;69486;59.082;37.928;2024-01-10T05:33:18;4.88;;;3.85;;
80159;SDS011;69486;59.082;37.928;2024-01-10T05:35:45;4.82;;;4.43;;
80159;SDS011;69486;59.082;37.928;2024-01-10T05:38:33;4.25;;;3.95;;
80159;SDS011;69486;59.082;37.928;2024-01-10T05:40:59;4.50;;;4.15;;
80159;SDS011;69486;59.082;37.928;2024-01-10T05:43:25;4.68;;;4.28;;
80159;SDS011;69486;59.082;37.928;2024-01-10T05:45:50;3.80;;;3.60;;
80159;SDS011;69486;59.082;37.928;2024-01-10T05:48:16;3.55;;;3.35;;
80159;SDS011;69486;59.082;37.928;2024-01-10T05:50:45;5.38;;;4.43;;
80159;SDS011;69486;59.082;37.928;2024-01-10T05:53:11;4.10;;;3.80;;
80159;SDS011;69486;59.082;37.928;2024-01-10T05:55:39;3.65;;;3.45;;
80159;SDS011;69486;59.082;37.928;2024-01-10T05:58:05;4.25;;;3.92;;
80159;SDS011;69486;59.082;37.928;2024-01-10T06:00:30;3.90;;;3.60;;
80159;SDS011;69486;59.082;37.928;2024-01-10T06:02:59;3.75;;;3.55;;
80159;SDS011;69486;59.082;37.928;2024-01-10T06:05:24;3.90;;;3.60;;
80159;SDS011;69486;59.082;37.928;2024-01-10T06:07:50;4.47;;;4.18;;
80159;SDS011;69486;59.082;37.928;2024-01-10T06:10:16;4.53;;;4.20;;
80159;SDS011;69486;59.082;37.928;2024-01-10T06:12:43;4.72;;;4.30;;
80159;SDS011;69486;59.082;37.928;2024-01-10T06:15:09;5.00;;;4.53;;
80159;SDS011;69486;59.082;37.928;2024-01-10T06:17:35;4.50;;;4.18;;
80159;SDS011;69486;59.082;37.928;2024-01-10T06:20:01;4.10;;;3.80;;
80159;SDS011;69486;59.082;37.928;2024-01-10T06:22:28;3.70;;;3.50;;
80159;SDS011;69486;59.082;37.928;2024-01-10T06:24:54;4.32;;;4.03;;
80159;SDS011;69486;59.082;37.928;2024-01-10T06:27:20;4.45;;;4.07;;
80159;SDS011;69486;59.082;37.928;2024-01-10T06:29:45;3.28;;;3.08;;
80159;SDS011;69486;59.082;37.928;2024-01-10T06:32:11;3.65;;;3.45;;
80159;SDS011;69486;59.082;37.928;2024-01-10T06:34:37;4.38;;;4.07;;
80159;SDS011;69486;59.082;37.928;2024-01-10T06:37:04;3.42;;;3.13;;
80159;SDS011;69486;59.082;37.928;2024-01-10T06:39:29;6.03;;;4.68;;
80159;SDS011;69486;59.082;37.928;2024-01-10T06:41:55;4.22;;;3.92;;
80159;SDS011;69486;59.082;37.928;2024-01-10T06:44:23;4.05;;;3.75;;
80159;SDS011;69486;59.082;37.928;2024-01-10T06:46:49;5.38;;;4.38;;
80159;SDS011;69486;59.082;37.928;2024-01-10T06:49:15;3.50;;;3.17;;
80159;SDS011;69486;59.082;37.928;2024-01-10T06:51:42;5.85;;;5.35;;
80159;SDS011;69486;59.082;37.928;2024-01-10T06:54:07;5.65;;;5.18;;
80159;SDS011;69486;59.082;37.928;2024-01-10T06:56:34;5.72;;;4.57;;
80159;SDS011;69486;59.082;37.928;2024-01-10T06:59:00;5.75;;;5.03;;
80159;SDS011;69486;59.082;37.928;2024-01-10T07:01:27;5.40;;;4.22;;
80159;SDS011;69486;59.082;37.928;2024-01-10T07:03:53;4.32;;;3.97;;
80159;SDS011;69486;59.082;37.928;2024-01-10T07:06:22;4.40;;;4.07;;
80159;SDS011;69486;59.082;37.928;2024-01-10T07:08:48;4.45;;;4.05;;
80159;SDS011;69486;59.082;37.928;2024-01-10T07:11:15;4.00;;;3.70;;
80159;SDS011;69486;59.082;37.928;2024-01-10T07:13:41;4.90;;;4.20;;
80159;SDS011;69486;59.082;37.928;2024-01-10T07:16:08;5.10;;;4.63;;
80159;SDS011;69486;59.082;37.928;2024-01-10T07:18:34;6.40;;;4.30;;
80159;SDS011;69486;59.082;37.928;2024-01-10T07:20:59;4.30;;;3.97;;
80159;SDS011;69486;59.082;37.928;2024-01-10T07:23:26;6.10;;;4.25;;
80159;SDS011;69486;59.082;37.928;2024-01-10T07:25:52;4.35;;;4.15;;
80159;SDS011;69486;59.082;37.928;2024-01-10T07:28:18;5.57;;;4.10;;
80159;SDS011;69486;59.082;37.928;2024-01-10T07:30:44;6.45;;;4.22;;
80159;SDS011;69486;59.082;37.928;2024-01-10T07:33:10;4.75;;;4.35;;
80159;SDS011;69486;59.082;37.928;2024-01-10T07:35:36;5.45;;;3.97;;
80159;SDS011;69486;59.082;37.928;2024-01-10T07:38:03;6.22;;;5.68;;
80159;SDS011;69486;59.082;37.928;2024-01-10T07:40:29;7.32;;;4.60;;
80159;SDS011;69486;59.082;37.928;2024-01-10T07:42:54;11.27;;;5.05;;
80159;SDS011;69486;59.082;37.928;2024-01-10T07:45:21;9.25;;;5.60;;
80159;SDS011;69486;59.082;37.928;2024-01-10T07:47:47;6.47;;;5.68;;
80159;SDS011;69486;59.082;37.928;2024-01-10T07:50:13;6.18;;;5.55;;
80159;SDS011;69486;59.082;37.928;2024-01-10T07:52:39;6.65;;;5.20;;
80159;SDS011;69486;59.082;37.928;2024-01-10T07:55:06;6.82;;;4.53;;
80159;SDS011;69486;59.082;37.928;2024-01-10T07:57:32;5.38;;;4.07;;
80159;SDS011;69486;59.082;37.928;2024-01-10T07:59:59;5.15;;;4.35;;
80159;SDS011;69486;59.082;37.928;2024-01-10T08:02:25;5.03;;;3.97;;
80159;SDS011;69486;59.082;37.928;2024-01-10T08:04:51;4.78;;;4.40;;
80159;SDS011;69486;59.082;37.928;2024-01-10T08:07:17;3.88;;;3.58;;
80159;SDS011;69486;59.082;37.928;2024-01-10T08:09:43;4.00;;;3.72;;
80159;SDS011;69486;59.082;37.928;2024-01-10T08:12:09;6.45;;;4.65;;
80159;SDS011;69486;59.082;37.928;2024-01-10T08:14:34;6.82;;;5.13;;
80159;SDS011;69486;59.082;37.928;2024-01-10T08:17:00;6.65;;;4.88;;
80159;SDS011;69486;59.082;37.928;2024-01-10T08:19:26;9.60;;;4.97;;
80159;SDS011;69486;59.082;37.928;2024-01-10T08:21:52;4.60;;;4.25;;
80159;SDS011;69486;59.082;37.928;2024-01-10T08:24:18;4.50;;;4.20;;
80159;SDS011;69486;59.082;37.928;2024-01-10T08:26:44;4.80;;;4.40;;
80159;SDS011;69486;59.082;37.928;2024-01-10T08:29:10;4.47;;;4.07;;
80159;SDS011;69486;59.082;37.928;2024-01-10T08:31:35;5.40;;;4.90;;
80159;SDS011;69486;59.082;37.928;2024-01-10T08:34:01;6.47;;;4.15;;
80159;SDS011;69486;59.082;37.928;2024-01-10T08:36:28;6.03;;;4.45;;
80159;SDS011;69486;59.082;37.928;2024-01-10T08:38:54;8.60;;;5.25;;
80159;SDS011;69486;59.082;37.928;2024-01-10T08:41:20;7.68;;;4.47;;
80159;SDS011;69486;59.082;37.928;2024-01-10T08:43:46;4.70;;;4.30;;
80159;SDS011;69486;59.082;37.928;2024-01-10T08:46:12;6.03;;;4.68;;
80159;SDS011;69486;59.082;37.928;2024-01-10T08:48:38;7.18;;;4.32;;
80159;SDS011;69486;59.082;37.928;2024-01-10T08:51:04;5.85;;;5.32;;
80159;SDS011;69486;59.082;37.928;2024-01-10T08:53:30;5.13;;;4.72;;
80159;SDS011;69486;59.082;37.928;2024-01-10T08:55:56;5.85;;;5.25;;
80159;SDS011;69486;59.082;37.928;2024-01-10T08:58:22;6.75;;;4.65;;
80159;SDS011;69486;59.082;37.928;2024-01-10T09:00:48;5.40;;;4.82;;
80159;SDS011;69486;59.082;37.928;2024-01-10T09:03:14;5.07;;;4.47;;
80159;SDS011;69486;59.082;37.928;2024-01-10T09:05:40;6.82;;;5.53;;
80159;SDS011;69486;59.082;37.928;2024-01-10T09:08:05;6.90;;;4.55;;
80159;SDS011;69486;59.082;37.928;2024-01-10T09:10:31;8.57;;;5.30;;
80159;SDS011;69486;59.082;37.928;2024-01-10T09:13:00;5.68;;;4.60;;
80159;SDS011;69486;59.082;37.928;2024-01-10T09:15:26;4.75;;;4.35;;
80159;SDS011;69486;59.082;37.928;2024-01-10T09:17:52;5.63;;;4.50;;
80159;SDS011;69486;59.082;37.928;2024-01-10T09:20:18;6.13;;;4.28;;
80159;SDS011;69486;59.082;37.928;2024-01-10T09:22:44;4.38;;;4.00;;
80159;SDS011;69486;59.082;37.928;2024-01-10T09:25:10;4.63;;;4.18;;
80159;SDS011;69486;59.082;37.928;2024-01-10T09:27:38;5.63;;;4.07;;
80159;SDS011;69486;59.082;37.928;2024-01-10T09:30:04;4.53;;;4.13;;
80159;SDS011;69486;59.082;37.928;2024-01-10T09:32:34;4.05;;;3.72;;
80159;SDS011;69486;59.082;37.928;2024-01-10T09:35:00;6.03;;;4.00;;
80159;SDS011;69486;59.082;37.928;2024-01-10T09:37:26;4.97;;;4.13;;
80159;SDS011;69486;59.082;37.928;2024-01-10T09:39:52;4.07;;;3.78;;
80159;SDS011;69486;59.082;37.928;2024-01-10T09:42:18;6.32;;;4.15;;
80159;SDS011;69486;59.082;37.928;2024-01-10T09:44:44;4.55;;;4.15;;
80159;SDS011;69486;59.082;37.928;2024-01-10T09:47:11;7.95;;;4.07;;
80159;SDS011;69486;59.082;37.928;2024-01-10T09:49:36;4.03;;;3.70;;
80159;SDS011;69486;59.082;37.928;2024-01-10T09:52:03;3.40;;;3.20;;
80159;SDS011;69486;59.082;37.928;2024-01-10T09:54:30;3.38;;;3.15;;
80159;SDS011;69486;59.082;37.928;2024-01-10T09:56:56;6.50;;;4.18;;
80159;SDS011;69486;59.082;37.928;2024-01-10T09:59:22;3.63;;;3.30;;
80159;SDS011;69486;59.082;37.928;2024-01-10T10:01:49;3.97;;;3.63;;
80159;SDS011;69486;59.082;37.928;2024-01-10T10:04:15;6.28;;;3.78;;
80159;SDS011;69486;59.082;37.928;2024-01-10T10:06:43;3.92;;;3.50;;
80159;SDS011;69486;59.082;37.928;2024-01-10T10:09:09;4.60;;;3.80;;
80159;SDS011;69486;59.082;37.928;2024-01-10T10:11:36;6.47;;;4.20;;
80159;SDS011;69486;59.082;37.928;2024-01-10T10:14:15;4.53;;;3.80;;
80159;SDS011;69486;59.082;37.928;2024-01-10T10:16:41;4.47;;;3.35;;
80159;SDS011;69486;59.082;37.928;2024-01-10T10:19:07;6.68;;;4.05;;
80159;SDS011;69486;59.082;37.928;2024-01-10T10:21:35;6.88;;;4.13;;
80159;SDS011;69486;59.082;37.928;2024-01-10T10:24:01;5.53;;;4.18;;
80159;SDS011;69486;59.082;37.928;2024-01-10T10:26:27;4.78;;;3.97;;
80159;SDS011;69486;59.082;37.928;2024-01-10T10:28:54;8.48;;;4.32;;
80159;SDS011;69486;59.082;37.928;2024-01-10T10:31:21;4.68;;;3.72;;
80159;SDS011;69486;59.082;37.928;2024-01-10T10:33:48;10.93;;;4.03;;
80159;SDS011;69486;59.082;37.928;2024-01-10T10:36:14;5.88;;;4.05;;
80159;SDS011;69486;59.082;37.928;2024-01-10T10:38:40;5.85;;;4.57;;
80159;SDS011;69486;59.082;37.928;2024-01-10T10:41:06;5.97;;;4.43;;
80159;SDS011;69486;59.082;37.928;2024-01-10T10:43:36;3.50;;;3.20;;
80159;SDS011;69486;59.082;37.928;2024-01-10T10:46:06;7.13;;;3.45;;
80159;SDS011;69486;59.082;37.928;2024-01-10T10:48:33;5.30;;;4.32;;
80159;SDS011;69486;59.082;37.928;2024-01-10T10:53:33;5.07;;;4.22;;
80159;SDS011;69486;59.082;37.928;2024-01-10T10:56:00;12.77;;;5.10;;
80159;SDS011;69486;59.082;37.928;2024-01-10T10:58:29;6.25;;;4.30;;
80159;SDS011;69486;59.082;37.928;2024-01-10T11:00:56;6.32;;;4.63;;
80159;SDS011;69486;59.082;37.928;2024-01-10T11:03:22;3.88;;;3.58;;
80159;SDS011;69486;59.082;37.928;2024-01-10T11:05:50;4.38;;;3.97;;
80159;SDS011;69486;59.082;37.928;2024-01-10T11:08:16;4.05;;;3.75;;
80159;SDS011;69486;59.082;37.928;2024-01-10T11:10:43;4.35;;;3.33;;
80159;SDS011;69486;59.082;37.928;2024-01-10T11:20:34;4.15;;;3.85;;
80159;SDS011;69486;59.082;37.928;2024-01-10T11:23:19;2.85;;;2.72;;
80159;SDS011;69486;59.082;37.928;2024-01-10T11:25:51;4.80;;;3.03;;
80159;SDS011;69486;59.082;37.928;2024-01-10T11:28:17;3.35;;;3.15;;
80159;SDS011;69486;59.082;37.928;2024-01-10T11:30:50;3.90;;;3.53;;
80159;SDS011;69486;59.082;37.928;2024-01-10T11:33:18;3.65;;;3.45;;
80159;SDS011;69486;59.082;37.928;2024-01-10T11:36:05;4.25;;;3.17;;
80159;SDS011;69486;59.082;37.928;2024-01-10T11:38:29;3.25;;;2.92;;
80159;SDS011;69486;59.082;37.928;2024-01-10T11:40:56;2.90;;;2.70;;
80159;SDS011;69486;59.082;37.928;2024-01-10T11:43:22;3.40;;;3.20;;
80159;SDS011;69486;59.082;37.928;2024-01-10T11:46:05;2.58;;;2.38;;
80159;SDS011;69486;59.082;37.928;2024-01-10T11:48:32;3.38;;;3.15;;
80159;SDS011;69486;59.082;37.928;2024-01-10T11:50:58;3.50;;;3.30;;
80159;SDS011;69486;59.082;37.928;2024-01-10T11:56:11;3.10;;;2.78;;
80159;SDS011;69486;59.082;37.928;2024-01-10T11:58:51;3.50;;;3.30;;
80159;SDS011;69486;59.082;37.928;2024-01-10T12:01:17;2.97;;;2.78;;
80159;SDS011;69486;59.082;37.928;2024-01-10T12:03:44;3.53;;;3.22;;
80159;SDS011;69486;59.082;37.928;2024-01-10T12:06:10;3.00;;;2.80;;
80159;SDS011;69486;59.082;37.928;2024-01-10T12:08:36;3.25;;;3.05;;
80159;SDS011;69486;59.082;37.928;2024-01-10T12:11:03;3.80;;;3.50;;
80159;SDS011;69486;59.082;37.928;2024-01-10T12:13:30;3.10;;;2.90;;
80159;SDS011;69486;59.082;37.928;2024-01-10T12:15:57;3.58;;;3.35;;
80159;SDS011;69486;59.082;37.928;2024-01-10T12:18:23;4.68;;;3.15;;
80159;SDS011;69486;59.082;37.928;2024-01-10T12:20:49;3.03;;;2.90;;
80159;SDS011;69486;59.082;37.928;2024-01-10T12:23:15;3.03;;;2.83;;
80159;SDS011;69486;59.082;37.928;2024-01-10T12:25:40;3.42;;;3.10;;
80159;SDS011;69486;59.082;37.928;2024-01-10T12:28:06;4.30;;;3.05;;
80159;SDS011;69486;59.082;37.928;2024-01-10T12:30:32;2.95;;;2.80;;
80159;SDS011;69486;59.082;37.928;2024-01-10T12:32:59;3.13;;;2.85;;
80159;SDS011;69486;59.082;37.928;2024-01-10T12:35:25;3.20;;;3.10;;
80159;SDS011;69486;59.082;37.928;2024-01-10T12:37:54;3.28;;;3.08;;
80159;SDS011;69486;59.082;37.928;2024-01-10T12:40:21;2.90;;;2.80;;
80159;SDS011;69486;59.082;37.928;2024-01-10T12:42:47;3.33;;;3.13;;
80159;SDS011;69486;59.082;37.928;2024-01-10T12:45:25;3.65;;;3.40;;
80159;SDS011;69486;59.082;37.928;2024-01-10T12:47:52;3.20;;;3.10;;
80159;SDS011;69486;59.082;37.928;2024-01-10T12:50:19;3.83;;;3.55;;
80159;SDS011;69486;59.082;37.928;2024-01-10T12:52:45;3.58;;;3.38;;
80159;SDS011;69486;59.082;37.928;2024-01-10T12:55:11;3.00;;;2.90;;
80159;SDS011;69486;59.082;37.928;2024-01-10T12:57:36;3.78;;;2.78;;
80159;SDS011;69486;59.082;37.928;2024-01-10T13:00:02;3.17;;;2.97;;
80159;SDS011;69486;59.082;37.928;2024-01-10T13:02:35;3.75;;;3.05;;
80159;SDS011;69486;59.082;37.928;2024-01-10T13:05:03;3.85;;;3.50;;
80159;SDS011;69486;59.082;37.928;2024-01-10T13:07:29;4.00;;;3.78;;
80159;SDS011;69486;59.082;37.928;2024-01-10T13:10:00;7.43;;;3.47;;
80159;SDS011;69486;59.082;37.928;2024-01-10T13:12:25;4.18;;;3.78;;
80159;SDS011;69486;59.082;37.928;2024-01-10T13:14:51;3.88;;;3.67;;
80159;SDS011;69486;59.082;37.928;2024-01-10T13:17:18;3.80;;;3.60;;
80159;SDS011;69486;59.082;37.928;2024-01-10T13:19:46;3.90;;;3.60;;
80159;SDS011;69486;59.082;37.928;2024-01-10T13:22:14;8.75;;;3.40;;
80159;SDS011;69486;59.082;37.928;2024-01-10T13:24:47;3.40;;;3.10;;
80159;SDS011;69486;59.082;37.928;2024-01-10T13:27:13;4.15;;;3.67;;
80159;SDS011;69486;59.082;37.928;2024-01-10T13:29:39;4.07;;;3.53;;
80159;SDS011;69486;59.082;37.928;2024-01-10T13:32:05;3.53;;;3.30;;
80159;SDS011;69486;59.082;37.928;2024-01-10T13:34:31;3.83;;;3.55;;
80159;SDS011;69486;59.082;37.928;2024-01-10T13:36:57;3.60;;;3.40;;
80159;SDS011;69486;59.082;37.928;2024-01-10T13:39:23;3.58;;;3.38;;
80159;SDS011;69486;59.082;37.928;2024-01-10T13:41:48;4.03;;;3.67;;
80159;SDS011;69486;59.082;37.928;2024-01-10T13:44:14;3.15;;;2.95;;
80159;SDS011;69486;59.082;37.928;2024-01-10T13:46:40;3.05;;;2.90;;
80159;SDS011;69486;59.082;37.928;2024-01-10T13:49:06;3.28;;;3.08;;
80159;SDS011;69486;59.082;37.928;2024-01-10T13:51:32;3.45;;;3.17;;
80159;SDS011;69486;59.082;37.928;2024-01-10T13:53:57;3.35;;;3.15;;
80159;SDS011;69486;59.082;37.928;2024-01-10T13:56:23;3.60;;;3.40;;
80159;SDS011;69486;59.082;37.928;2024-01-10T13:58:49;3.08;;;2.88;;
80159;SDS011;69486;59.082;37.928;2024-01-10T14:01:15;3.42;;;3.22;;
80159;SDS011;69486;59.082;37.928;2024-01-10T14:03:40;3.28;;;3.03;;
80159;SDS011;69486;59.082;37.928;2024-01-10T14:06:06;3.45;;;3.25;;
80159;SDS011;69486;59.082;37.928;2024-01-10T14:08:32;3.45;;;3.25;;
80159;SDS011;69486;59.082;37.928;2024-01-10T14:10:59;3.40;;;3.20;;
80159;SDS011;69486;59.082;37.928;2024-01-10T14:13:25;3.53;;;3.33;;
80159;SDS011;69486;59.082;37.928;2024-01-10T14:15:50;3.92;;;3.50;;
80159;SDS011;69486;59.082;37.928;2024-01-10T14:18:16;4.38;;;4.07;;
80159;SDS011;69486;59.082;37.928;2024-01-10T14:20:42;3.92;;;3.63;;
80159;SDS011;69486;59.082;37.928;2024-01-10T14:23:07;4.10;;;3.72;;
80159;SDS011;69486;59.082;37.928;2024-01-10T14:25:33;4.03;;;3.65;;
80159;SDS011;69486;59.082;37.928;2024-01-10T14:27:59;3.80;;;3.60;;
80159;SDS011;69486;59.082;37.928;2024-01-10T14:30:25;4.82;;;3.50;;
80159;SDS011;69486;59.082;37.928;2024-01-10T14:32:52;4.55;;;4.20;;
80159;SDS011;69486;59.082;37.928;2024-01-10T14:35:18;5.20;;;3.78;;
80159;SDS011;69486;59.082;37.928;2024-01-10T14:37:44;4.90;;;3.40;;
80159;SDS011;69486;59.082;37.928;2024-01-10T14:40:10;3.70;;;3.50;;
80159;SDS011;69486;59.082;37.928;2024-01-10T14:42:36;3.90;;;3.58;;